Time;durP1;ratioP1;P1;durP2;ratioP2;P2;SDS_P1;SDS_P2;PMS_P1;PMS_P2;Temp;Humidity;BMP_temperature;BMP_pressure;BME280_temperature;BME280_humidity;BME280_pressure;Samples;Min_cycle;Max_cycle;Signal;HPM_P1;HPM_P2
2022/03/23 00:01:29;;;;;;;36.47;22.47;;;14.90;46.60;;;;;;5067354;28;20211;-96
2022/03/23 00:03:56;;;;;;;36.67;21.60;;;14.90;46.20;;;;;;5072010;28;20227;-95
2022/03/23 00:06:24;;;;;;;35.33;21.60;;;14.80;46.20;;;;;;5064652;28;20249;-95
2022/03/23 00:08:52;;;;;;;40.37;21.67;;;14.70;46.40;;;;;;5076632;28;20231;-96
2022/03/23 00:11:21;;;;;;;31.13;19.50;;;14.60;46.10;;;;;;5070411;28;20210;-95
2022/03/23 00:13:56;;;;;;;35.43;20.43;;;14.60;46.40;;;;;;5070285;28;20260;-94
2022/03/23 00:16:26;;;;;;;32.30;19.90;;;14.50;46.80;;;;;;5072887;28;20299;-95
2022/03/23 00:18:55;;;;;;;27.57;18.57;;;14.40;46.80;;;;;;5073585;28;20234;-95
2022/03/23 00:21:24;;;;;;;33.97;19.30;;;14.40;46.90;;;;;;5073195;28;20253;-95
2022/03/23 00:24:01;;;;;;;32.40;20.23;;;14.40;46.70;;;;;;5071884;28;20210;-94
2022/03/23 00:26:57;;;;;;;31.30;19.33;;;14.30;46.90;;;;;;5074499;28;20752;-95
2022/03/23 00:29:25;;;;;;;33.90;20.60;;;14.20;47.70;;;;;;5006615;28;20216;-94
2022/03/23 00:31:53;;;;;;;34.93;19.90;;;14.20;47.00;;;;;;5012978;28;20209;-95
2022/03/23 00:34:21;;;;;;;33.23;19.53;;;14.10;46.90;;;;;;5005937;28;20216;-94
2022/03/23 00:36:50;;;;;;;26.90;18.63;;;14.10;46.80;;;;;;5008522;28;20208;-95
2022/03/23 00:39:20;;;;;;;28.73;18.40;;;14.10;47.10;;;;;;5047121;28;20233;-95
2022/03/23 00:41:49;;;;;;;30.97;18.97;;;14.00;47.10;;;;;;5079697;28;20196;-95
2022/03/23 00:44:18;;;;;;;31.30;18.50;;;13.90;47.10;;;;;;5073473;28;20203;-95
2022/03/23 00:46:45;;;;;;;31.00;19.63;;;14.00;47.50;;;;;;5074106;28;20214;-95
2022/03/23 00:49:14;;;;;;;35.07;19.70;;;13.90;47.30;;;;;;5075040;28;20222;-95
2022/03/23 00:51:42;;;;;;;31.87;19.03;;;14.00;47.70;;;;;;5076061;28;20260;-95
2022/03/23 00:54:12;;;;;;;36.93;19.60;;;13.90;47.50;;;;;;5075788;28;20200;-94
2022/03/23 00:56:40;;;;;;;32.33;18.90;;;13.90;47.80;;;;;;5073120;28;20196;-94
2022/03/23 00:59:11;;;;;;;36.47;19.70;;;13.80;47.50;;;;;;5076610;28;20672;-95
2022/03/23 01:01:39;;;;;;;29.27;18.77;;;13.80;47.80;;;;;;5078726;28;20211;-96
2022/03/23 01:04:07;;;;;;;35.40;19.33;;;13.80;47.60;;;;;;5076134;28;20663;-95
2022/03/23 01:06:35;;;;;;;29.27;18.90;;;13.80;47.30;;;;;;5074769;28;20296;-95
2022/03/23 01:09:06;;;;;;;28.87;17.97;;;13.70;47.50;;;;;;5074886;28;20220;-95
2022/03/23 01:11:47;;;;;;;35.47;19.70;;;13.60;48.00;;;;;;5073346;28;20671;-94
2022/03/23 01:14:15;;;;;;;34.70;19.53;;;13.60;48.10;;;;;;5076241;28;20655;-95
2022/03/23 01:16:45;;;;;;;29.33;17.90;;;13.50;47.90;;;;;;5075562;28;20272;-95
2022/03/23 01:19:16;;;;;;;33.43;18.63;;;13.50;47.90;;;;;;5077589;28;20239;-94
2022/03/23 01:21:54;;;;;;;28.60;17.83;;;13.40;48.00;;;;;;5076817;28;20203;-96
2022/03/23 01:24:32;;;;;;;30.53;18.57;;;13.40;48.50;;;;;;5056843;28;20212;-94
2022/03/23 01:27:05;;;;;;;32.70;17.70;;;13.30;48.00;;;;;;5072491;28;20222;-95
2022/03/23 01:29:43;;;;;;;28.80;17.17;;;13.30;48.10;;;;;;5074060;28;20817;-94
2022/03/23 01:32:10;;;;;;;31.07;18.67;;;13.30;48.50;;;;;;5071240;28;20243;-95
2022/03/23 01:34:39;;;;;;;34.63;19.67;;;13.20;48.20;;;;;;5072684;28;20261;-94
2022/03/23 01:37:08;;;;;;;29.00;18.50;;;13.20;47.90;;;;;;5075193;28;20238;-95
2022/03/23 01:39:36;;;;;;;34.30;18.67;;;13.20;48.00;;;;;;5073420;28;20222;-94
2022/03/23 01:42:17;;;;;;;36.10;19.03;;;13.10;48.10;;;;;;5075009;28;20595;-94
2022/03/23 01:44:45;;;;;;;35.33;18.93;;;13.00;48.30;;;;;;5072815;28;20223;-94
2022/03/23 01:47:17;;;;;;;35.43;19.20;;;13.00;48.20;;;;;;5060402;28;20224;-94
2022/03/23 01:49:46;;;;;;;29.20;18.10;;;12.90;48.50;;;;;;5058383;28;20201;-96
2022/03/23 01:52:16;;;;;;;32.00;18.77;;;12.90;48.50;;;;;;5076016;28;20204;-96
2022/03/23 01:54:54;;;;;;;27.80;18.03;;;12.90;48.60;;;;;;5074586;28;20230;-94
2022/03/23 01:57:35;;;;;;;31.37;18.77;;;12.80;48.80;;;;;;5073212;28;20675;-95
2022/03/23 02:00:07;;;;;;;41.27;19.77;;;12.70;48.70;;;;;;5075820;28;20231;-96
2022/03/23 02:02:35;;;;;;;29.50;16.93;;;12.70;49.00;;;;;;5075889;28;20601;-95
2022/03/23 02:05:02;;;;;;;39.80;20.00;;;12.60;48.90;;;;;;5073962;28;20218;-94
2022/03/23 02:07:36;;;;;;;33.23;18.43;;;12.60;49.10;;;;;;5074403;28;20223;-94
2022/03/23 02:10:09;;;;;;;29.80;17.73;;;12.50;49.00;;;;;;5070768;28;20211;-94
2022/03/23 02:12:40;;;;;;;31.63;18.50;;;12.50;49.00;;;;;;5065185;28;20224;-96
2022/03/23 02:15:13;;;;;;;29.83;17.87;;;12.40;49.20;;;;;;5071399;28;20203;-92
2022/03/23 02:17:42;;;;;;;27.43;17.70;;;12.40;49.50;;;;;;5073545;28;20261;-93
2022/03/23 02:20:40;;;;;;;28.77;17.43;;;12.40;49.40;;;;;;5075789;28;20229;-94
2022/03/23 02:23:09;;;;;;;29.20;17.23;;;12.30;49.40;;;;;;5054426;28;20209;-96
2022/03/23 02:25:58;;;;;;;33.93;18.70;;;12.30;49.30;;;;;;5074979;28;20229;-94
2022/03/23 02:28:27;;;;;;;28.87;18.80;;;12.20;50.00;;;;;;5074178;28;20212;-95
2022/03/23 02:30:56;;;;;;;35.80;21.80;;;12.20;49.30;;;;;;5075999;28;20654;-93
2022/03/23 02:33:24;;;;;;;34.20;19.23;;;12.10;49.40;;;;;;5073351;28;20195;-94
2022/03/23 02:35:51;;;;;;;31.97;19.13;;;12.10;49.40;;;;;;5074175;28;20204;-95
2022/03/23 02:38:19;;;;;;;34.67;20.43;;;12.10;49.60;;;;;;5073251;28;20281;-94
2022/03/23 02:40:57;;;;;;;30.83;18.40;;;12.00;49.70;;;;;;5072197;28;20552;-95
2022/03/23 02:43:29;;;;;;;34.30;18.77;;;12.10;50.20;;;;;;5073457;28;20199;-95
2022/03/23 02:45:57;;;;;;;27.07;18.57;;;12.00;50.00;;;;;;5074586;28;20207;-95
2022/03/23 02:48:25;;;;;;;34.20;18.80;;;12.00;49.80;;;;;;5069383;28;20258;-95
2022/03/23 02:51:11;;;;;;;30.10;18.53;;;12.00;49.90;;;;;;5061183;28;20203;-96
2022/03/23 03:02:19;;;;;;;29.50;17.77;;;11.80;49.80;;;;;;5078132;28;20231;-94
2022/03/23 03:04:47;;;;;;;34.33;18.50;;;11.80;50.20;;;;;;5083673;28;20219;-94
2022/03/23 03:07:18;;;;;;;27.40;17.40;;;11.70;50.00;;;;;;5068721;28;20202;-95
2022/03/23 03:09:50;;;;;;;28.37;17.23;;;11.70;50.40;;;;;;5079800;28;20253;-95
2022/03/23 03:12:27;;;;;;;34.50;17.87;;;11.70;50.50;;;;;;5079919;28;20222;-94
2022/03/23 03:14:55;;;;;;;31.60;17.87;;;11.70;50.60;;;;;;5078790;28;20194;-95
2022/03/23 03:17:22;;;;;;;38.03;18.93;;;11.60;50.00;;;;;;5078033;28;20204;-95
2022/03/23 03:19:56;;;;;;;35.27;19.17;;;11.60;49.90;;;;;;5078233;28;20220;-95
2022/03/23 03:22:25;;;;;;;35.47;18.77;;;11.50;50.40;;;;;;5091016;28;20228;-94
2022/03/23 03:24:53;;;;;;;30.40;16.93;;;11.50;50.30;;;;;;5086254;28;20226;-95
2022/03/23 03:27:20;;;;;;;34.80;18.07;;;11.50;50.50;;;;;;5080788;28;20191;-96
2022/03/23 03:29:51;;;;;;;33.97;18.57;;;11.40;50.30;;;;;;5082787;28;20199;-96
2022/03/23 03:32:19;;;;;;;33.90;17.53;;;11.40;50.60;;;;;;5064313;28;20262;-96
2022/03/23 03:34:47;;;;;;;28.00;16.37;;;11.40;50.40;;;;;;5079987;28;20207;-95
2022/03/23 03:37:15;;;;;;;31.73;18.00;;;11.30;50.50;;;;;;5077636;28;20209;-96
2022/03/23 03:39:48;;;;;;;28.63;17.77;;;11.30;50.60;;;;;;5067092;28;20229;-96
2022/03/23 03:42:18;;;;;;;37.07;17.73;;;11.20;50.60;;;;;;5065991;28;20207;-96
2022/03/23 03:44:50;;;;;;;26.17;16.60;;;11.20;50.60;;;;;;5060474;28;20218;-96
2022/03/23 03:47:20;;;;;;;27.10;16.77;;;11.20;50.70;;;;;;5075756;28;20225;-96
2022/03/23 03:49:48;;;;;;;31.80;17.87;;;11.20;50.60;;;;;;5076875;28;20215;-93
2022/03/23 03:52:16;;;;;;;24.53;16.43;;;11.20;51.20;;;;;;5077748;28;20201;-96
2022/03/23 03:54:49;;;;;;;32.47;17.37;;;11.10;50.90;;;;;;5078116;28;20258;-96
2022/03/23 04:00:20;;;;;;;35.70;18.83;;;11.10;51.40;;;;;;5056173;28;20309;-96
2022/03/23 04:02:48;;;;;;;28.70;17.13;;;11.00;50.90;;;;;;5076695;28;20241;-96
2022/03/23 04:05:17;;;;;;;28.90;16.93;;;11.00;51.10;;;;;;5080469;28;20212;-96
2022/03/23 04:07:46;;;;;;;25.03;16.53;;;11.00;51.20;;;;;;5064004;28;20267;-96
2022/03/23 04:10:16;;;;;;;27.57;15.73;;;11.00;51.40;;;;;;5077695;28;20236;-94
2022/03/23 04:12:48;;;;;;;28.47;16.80;;;10.90;51.40;;;;;;5074584;28;20228;-96
2022/03/23 04:15:15;;;;;;;31.53;17.53;;;10.90;51.50;;;;;;5085705;28;20197;-96
2022/03/23 04:17:44;;;;;;;29.50;17.90;;;10.80;51.30;;;;;;5083027;28;20306;-96
2022/03/23 04:20:13;;;;;;;30.37;17.03;;;10.80;51.30;;;;;;5081061;28;20217;-95
2022/03/23 04:22:40;;;;;;;29.93;17.90;;;10.90;51.40;;;;;;5077249;28;20210;-94
2022/03/23 04:25:09;;;;;;;31.57;16.83;;;10.80;51.50;;;;;;5073658;28;20205;-95
2022/03/23 04:27:45;;;;;;;31.20;17.20;;;10.70;51.50;;;;;;5076073;28;20205;-94
2022/03/23 04:30:14;;;;;;;31.40;17.60;;;10.70;51.90;;;;;;5075104;28;20208;-94
2022/03/23 04:32:43;;;;;;;29.90;17.30;;;10.70;51.60;;;;;;5073202;28;20249;-95
2022/03/23 04:35:11;;;;;;;30.37;17.27;;;10.70;51.50;;;;;;5074650;28;20207;-95
2022/03/23 04:37:38;;;;;;;34.80;18.90;;;10.60;51.50;;;;;;5072092;28;20226;-94
2022/03/23 04:40:07;;;;;;;29.50;16.93;;;10.60;51.60;;;;;;5075744;28;20226;-95
2022/03/23 04:42:35;;;;;;;29.40;16.50;;;10.60;51.80;;;;;;5076225;28;20194;-96
2022/03/23 04:45:03;;;;;;;29.50;16.80;;;10.60;51.80;;;;;;5078026;28;20312;-95
2022/03/23 04:47:36;;;;;;;27.17;16.07;;;10.60;51.90;;;;;;5076683;28;20753;-95
2022/03/23 04:50:16;;;;;;;25.03;16.27;;;10.60;52.30;;;;;;5076694;28;20567;-94
2022/03/23 04:52:45;;;;;;;23.47;15.47;;;10.50;52.20;;;;;;5069283;28;20209;-95
2022/03/23 04:55:13;;;;;;;31.07;16.30;;;10.50;51.90;;;;;;5072423;28;20267;-96
2022/03/23 04:57:42;;;;;;;27.63;15.43;;;10.50;51.90;;;;;;5077162;28;20232;-94
2022/03/23 05:00:13;;;;;;;32.83;17.27;;;10.50;51.90;;;;;;5075205;28;20236;-94
2022/03/23 05:02:41;;;;;;;31.00;16.73;;;10.50;52.10;;;;;;5069319;28;20201;-95
2022/03/23 05:05:15;;;;;;;28.77;16.77;;;10.50;51.80;;;;;;5071528;28;20692;-95
2022/03/23 05:07:45;;;;;;;24.87;16.03;;;10.40;52.00;;;;;;5078385;28;20197;-95
2022/03/23 05:10:15;;;;;;;29.93;17.17;;;10.40;52.00;;;;;;5076608;28;20214;-95
2022/03/23 05:12:49;;;;;;;29.53;17.73;;;10.30;52.00;;;;;;5075225;28;20699;-95
2022/03/23 05:15:19;;;;;;;33.23;18.80;;;10.40;52.30;;;;;;5077057;28;20197;-95
2022/03/23 05:17:48;;;;;;;31.30;18.63;;;10.30;52.40;;;;;;5065921;28;20210;-96
2022/03/23 05:20:18;;;;;;;30.10;17.83;;;10.30;52.30;;;;;;5070301;28;20260;-95
2022/03/23 05:22:47;;;;;;;31.00;18.50;;;10.20;52.10;;;;;;5074512;28;20563;-94
2022/03/23 05:25:14;;;;;;;32.80;18.90;;;10.20;52.20;;;;;;5074676;28;20297;-94
2022/03/23 05:27:47;;;;;;;30.83;18.20;;;10.20;52.90;;;;;;5075896;28;20287;-95
2022/03/23 05:30:15;;;;;;;38.37;19.07;;;10.10;53.10;;;;;;5076158;28;20216;-94
2022/03/23 05:32:44;;;;;;;34.73;18.23;;;10.10;52.80;;;;;;5074590;28;20229;-96
2022/03/23 05:35:13;;;;;;;31.73;16.57;;;10.10;52.80;;;;;;5075813;28;20229;-95
2022/03/23 05:37:41;;;;;;;28.07;16.90;;;10.00;52.90;;;;;;5076381;28;20262;-94
2022/03/23 05:40:18;;;;;;;30.20;18.30;;;10.00;52.80;;;;;;5061954;28;20224;-94
2022/03/23 05:42:47;;;;;;;32.77;18.20;;;10.00;53.20;;;;;;5072146;28;20205;-95
2022/03/23 05:45:15;;;;;;;35.30;19.10;;;10.00;53.20;;;;;;5073479;28;20211;-95
2022/03/23 05:47:42;;;;;;;32.10;17.30;;;9.90;54.00;;;;;;5073528;28;20644;-95
2022/03/23 05:50:11;;;;;;;30.63;18.13;;;9.90;54.10;;;;;;5063899;28;20665;-95
2022/03/23 05:52:41;;;;;;;28.60;17.23;;;9.90;54.30;;;;;;5074113;28;20222;-95
2022/03/23 05:55:09;;;;;;;30.93;18.10;;;9.90;54.00;;;;;;5074800;28;20207;-94
2022/03/23 05:57:39;;;;;;;33.43;18.23;;;9.90;53.80;;;;;;5074203;28;20622;-94
2022/03/23 06:00:09;;;;;;;39.10;21.13;;;9.90;54.00;;;;;;5069269;28;20227;-96
2022/03/23 06:02:37;;;;;;;26.90;16.93;;;9.90;54.10;;;;;;5072496;28;20298;-95
2022/03/23 06:05:10;;;;;;;28.20;16.97;;;9.80;53.90;;;;;;5068530;28;20217;-96
2022/03/23 06:07:40;;;;;;;37.83;17.33;;;9.80;54.10;;;;;;5071561;28;20207;-94
2022/03/23 06:10:08;;;;;;;34.20;18.20;;;9.80;54.20;;;;;;5067943;28;20232;-94
2022/03/23 06:12:43;;;;;;;36.07;18.67;;;9.80;54.40;;;;;;5073132;28;20635;-96
2022/03/23 06:15:19;;;;;;;31.87;17.97;;;9.80;54.60;;;;;;5069582;28;20272;-94
2022/03/23 06:17:48;;;;;;;34.07;17.43;;;9.80;54.50;;;;;;5082378;28;20644;-93
2022/03/23 06:20:20;;;;;;;27.83;17.60;;;9.80;54.70;;;;;;5081413;28;20320;-95
2022/03/23 06:23:05;;;;;;;32.70;17.13;;;9.80;54.70;;;;;;5075426;28;20735;-94
2022/03/23 06:25:36;;;;;;;34.47;18.10;;;9.80;54.60;;;;;;5075746;28;20997;-94
2022/03/23 06:28:04;;;;;;;29.83;17.23;;;9.80;54.80;;;;;;5075192;28;20269;-95
2022/03/23 06:30:31;;;;;;;29.60;17.60;;;9.80;54.90;;;;;;5078271;28;20201;-95
2022/03/23 06:33:06;;;;;;;37.17;19.27;;;9.80;55.00;;;;;;5073179;28;20215;-95
2022/03/23 06:35:35;;;;;;;38.20;20.23;;;9.70;55.10;;;;;;5069967;28;20195;-95
2022/03/23 06:38:15;;;;;;;30.90;17.33;;;9.80;55.20;;;;;;5061800;28;20201;-94
2022/03/23 06:40:44;;;;;;;37.43;18.93;;;9.80;55.50;;;;;;5066431;28;20231;-96
2022/03/23 06:43:12;;;;;;;33.23;18.90;;;9.80;55.30;;;;;;5070497;28;20246;-96
2022/03/23 06:45:40;;;;;;;31.17;17.60;;;9.80;55.20;;;;;;5067739;28;20904;-94
2022/03/23 06:48:07;;;;;;;42.20;20.57;;;9.80;55.20;;;;;;5071729;28;20212;-96
2022/03/23 06:50:37;;;;;;;34.67;17.57;;;9.80;55.30;;;;;;5070897;28;20232;-95
2022/03/23 06:53:07;;;;;;;27.67;17.60;;;9.90;55.50;;;;;;5070812;28;20206;-95
2022/03/23 06:58:16;;;;;;;31.80;18.13;;;9.90;55.20;;;;;;5070704;28;20666;-96
2022/03/23 07:00:44;;;;;;;30.23;17.53;;;10.00;54.20;;;;;;5068392;28;20266;-95
2022/03/23 07:03:13;;;;;;;28.63;17.77;;;10.00;54.20;;;;;;5072378;28;20206;-96
2022/03/23 07:05:41;;;;;;;35.03;18.93;;;10.00;54.30;;;;;;5072911;28;20597;-96
2022/03/23 07:10:56;;;;;;;26.80;17.67;;;10.10;54.70;;;;;;5072541;28;20243;-96
2022/03/23 07:13:23;;;;;;;31.50;17.93;;;10.20;54.50;;;;;;5072435;28;20300;-96
2022/03/23 07:15:52;;;;;;;32.87;18.07;;;10.20;54.30;;;;;;5071356;28;20713;-95
2022/03/23 07:18:19;;;;;;;33.50;17.17;;;10.30;54.80;;;;;;5068679;28;20217;-94
2022/03/23 07:20:46;;;;;;;36.13;19.80;;;10.30;54.80;;;;;;5069169;28;20254;-94
2022/03/23 07:23:15;;;;;;;34.77;18.37;;;10.30;54.90;;;;;;5067163;28;20204;-93
2022/03/23 07:25:46;;;;;;;31.20;18.63;;;10.40;55.10;;;;;;5069128;28;20208;-94
2022/03/23 07:28:24;;;;;;;36.90;18.70;;;10.50;55.30;;;;;;5070957;28;20715;-94
2022/03/23 07:30:51;;;;;;;33.50;18.80;;;10.50;55.30;;;;;;5069759;28;20204;-93
2022/03/23 07:33:19;;;;;;;37.40;20.17;;;10.60;55.20;;;;;;5067960;28;20206;-92
2022/03/23 07:35:48;;;;;;;43.70;20.40;;;10.60;55.20;;;;;;5062705;28;20306;-93
2022/03/23 07:38:16;;;;;;;37.97;20.00;;;10.70;55.10;;;;;;5058649;28;20230;-93
2022/03/23 07:40:44;;;;;;;33.03;19.50;;;10.80;55.50;;;;;;5068023;28;20320;-93
2022/03/23 07:43:11;;;;;;;47.17;20.73;;;10.90;55.50;;;;;;5066222;28;20258;-94
2022/03/23 07:45:40;;;;;;;30.10;17.63;;;11.00;55.40;;;;;;5065317;28;20583;-92
2022/03/23 07:48:07;;;;;;;43.37;21.00;;;11.00;55.70;;;;;;5059958;28;20286;-93
2022/03/23 07:50:34;;;;;;;35.97;19.67;;;11.10;55.40;;;;;;5069193;28;20199;-92
2022/03/23 07:53:02;;;;;;;42.40;21.37;;;11.20;55.60;;;;;;5064199;28;20207;-93
2022/03/23 07:55:31;;;;;;;31.97;18.57;;;11.30;55.60;;;;;;5064930;28;20334;-93
2022/03/23 07:57:58;;;;;;;32.80;19.57;;;11.40;55.20;;;;;;5066932;28;20274;-93
2022/03/23 08:00:25;;;;;;;36.53;19.83;;;11.60;55.30;;;;;;5064157;28;20225;-92
2022/03/23 08:02:52;;;;;;;33.07;19.47;;;11.70;55.10;;;;;;5068002;28;20217;-93
2022/03/23 08:05:19;;;;;;;32.77;19.43;;;11.70;55.00;;;;;;5067680;28;20210;-93
2022/03/23 08:07:48;;;;;;;32.20;19.03;;;11.80;55.00;;;;;;5069271;28;20248;-93
2022/03/23 08:10:15;;;;;;;35.93;19.10;;;12.00;54.90;;;;;;5069031;28;20727;-93
2022/03/23 08:12:44;;;;;;;33.03;17.87;;;12.10;54.80;;;;;;5070180;28;20282;-93
2022/03/23 08:15:11;;;;;;;35.43;19.67;;;12.20;54.80;;;;;;5067206;28;20199;-94
2022/03/23 08:17:38;;;;;;;33.17;19.63;;;12.30;54.60;;;;;;5069360;28;20300;-92
2022/03/23 08:22:52;;;;;;;36.00;18.87;;;12.60;54.60;;;;;;5069315;28;20253;-93
2022/03/23 08:25:22;;;;;;;36.43;19.80;;;12.70;54.30;;;;;;5068983;28;20289;-93
2022/03/23 08:27:50;;;;;;;35.20;19.27;;;12.90;54.30;;;;;;5069804;28;20605;-92
2022/03/23 08:30:17;;;;;;;35.63;19.20;;;13.10;54.30;;;;;;5067991;28;20306;-94
2022/03/23 08:32:44;;;;;;;35.77;19.13;;;13.20;54.20;;;;;;5065662;28;20230;-93
2022/03/23 08:35:13;;;;;;;38.67;19.27;;;13.30;54.00;;;;;;5069038;28;20207;-94
2022/03/23 08:37:40;;;;;;;38.67;19.40;;;13.40;53.80;;;;;;5069275;28;20235;-93
2022/03/23 08:40:08;;;;;;;33.60;18.87;;;13.60;53.80;;;;;;5064332;28;20212;-93
2022/03/23 08:42:36;;;;;;;38.60;20.83;;;13.70;53.80;;;;;;5066997;28;20288;-94
2022/03/23 08:45:05;;;;;;;38.80;20.60;;;13.90;53.70;;;;;;5068759;28;20318;-93
2022/03/23 08:47:33;;;;;;;33.93;19.83;;;14.10;53.90;;;;;;5050469;28;20244;-94
2022/03/23 08:50:01;;;;;;;37.83;19.53;;;14.30;53.70;;;;;;5049282;28;20239;-91
2022/03/23 08:52:29;;;;;;;37.77;20.03;;;14.50;53.80;;;;;;5066834;28;20292;-91
2022/03/23 08:54:57;;;;;;;37.27;20.87;;;14.80;53.80;;;;;;5067946;28;20203;-92
2022/03/23 08:57:30;;;;;;;37.10;20.43;;;15.10;53.80;;;;;;5071820;28;20613;-91
2022/03/23 08:59:57;;;;;;;37.73;20.63;;;15.40;53.10;;;;;;5051988;28;20207;-91
2022/03/23 09:02:27;;;;;;;36.40;20.37;;;15.70;53.10;;;;;;5052679;28;20239;-93
2022/03/23 09:04:54;;;;;;;37.37;21.27;;;16.00;53.10;;;;;;5072137;28;20664;-92
2022/03/23 09:07:27;;;;;;;39.33;21.80;;;16.40;52.70;;;;;;5069165;28;20286;-92
2022/03/23 09:09:55;;;;;;;36.23;21.10;;;16.70;52.00;;;;;;5052847;28;20216;-92
2022/03/23 09:12:24;;;;;;;43.13;22.43;;;17.10;51.70;;;;;;5065819;28;20298;-92
2022/03/23 09:14:51;;;;;;;36.07;21.20;;;17.40;51.30;;;;;;5073190;28;20290;-93
2022/03/23 09:17:24;;;;;;;36.03;20.83;;;17.70;50.70;;;;;;5072457;28;20717;-94
2022/03/23 09:19:54;;;;;;;39.57;22.40;;;18.00;50.30;;;;;;5073709;28;20620;-93
2022/03/23 09:22:23;;;;;;;36.50;21.23;;;18.30;49.40;;;;;;5072756;28;20223;-93
2022/03/23 09:24:50;;;;;;;35.00;20.97;;;18.60;49.80;;;;;;5075977;28;20307;-93
2022/03/23 09:27:17;;;;;;;30.00;18.80;;;18.90;49.90;;;;;;5075392;28;20215;-95
2022/03/23 09:29:45;;;;;;;36.90;20.10;;;19.20;49.30;;;;;;5062086;28;20230;-95
2022/03/23 09:32:13;;;;;;;29.53;19.37;;;19.40;49.30;;;;;;5073634;28;20554;-93
2022/03/23 09:34:41;;;;;;;31.30;19.83;;;19.70;49.00;;;;;;5072913;28;20201;-92
2022/03/23 09:39:56;;;;;;;33.23;20.93;;;20.30;48.10;;;;;;5063099;28;20211;-93
2022/03/23 09:42:27;;;;;;;28.47;19.43;;;20.60;47.70;;;;;;5053313;28;20224;-93
2022/03/23 09:45:02;;;;;;;35.57;21.37;;;20.80;47.10;;;;;;5068468;28;20213;-94
2022/03/23 09:47:31;;;;;;;34.83;20.87;;;21.00;45.60;;;;;;5074675;28;20230;-93
2022/03/23 09:49:59;;;;;;;31.07;19.97;;;21.20;46.00;;;;;;5072288;28;20247;-94
2022/03/23 09:52:44;;;;;;;44.70;23.27;;;21.40;45.50;;;;;;5072858;28;20199;-94
2022/03/23 09:55:12;;;;;;;33.97;21.00;;;21.60;44.80;;;;;;5054106;28;20192;-95
2022/03/23 09:57:40;;;;;;;32.27;20.27;;;21.70;43.70;;;;;;5056177;28;20243;-94
2022/03/23 10:00:12;;;;;;;31.30;20.40;;;21.90;44.70;;;;;;5074674;28;20638;-94
2022/03/23 10:03:30;;;;;;;29.60;19.67;;;22.00;44.80;;;;;;5077674;28;20227;-93
2022/03/23 10:06:41;;;;;;;35.80;20.00;;;22.20;44.30;;;;;;5075484;28;20226;-93
2022/03/23 10:09:53;;;;;;;32.27;20.40;;;22.40;43.60;;;;;;5073187;28;20202;-93
2022/03/23 10:12:57;;;;;;;32.07;20.33;;;22.60;43.60;;;;;;5048344;28;20230;-94
2022/03/23 10:16:01;;;;;;;28.23;18.83;;;22.80;42.80;;;;;;5054604;28;20644;-95
2022/03/23 10:18:50;;;;;;;30.33;19.80;;;23.00;42.90;;;;;;5059583;28;20297;-95
2022/03/23 10:21:18;;;;;;;34.70;19.50;;;23.20;42.40;;;;;;5075267;28;21015;-95
2022/03/23 10:23:52;;;;;;;29.20;18.50;;;23.30;43.50;;;;;;5073480;28;20616;-93
2022/03/23 10:26:22;;;;;;;27.53;20.03;;;23.50;42.90;;;;;;5072450;28;20230;-94
2022/03/23 10:28:49;;;;;;;30.97;20.07;;;23.60;42.50;;;;;;5069112;28;20239;-94
2022/03/23 10:31:17;;;;;;;27.73;19.70;;;23.80;42.70;;;;;;5071818;28;20298;-93
2022/03/23 10:33:56;;;;;;;27.23;18.27;;;23.90;42.90;;;;;;5070727;28;20217;-93
2022/03/23 10:36:24;;;;;;;31.63;19.23;;;24.10;42.40;;;;;;5072820;28;20630;-93
2022/03/23 10:38:59;;;;;;;26.20;18.13;;;24.20;42.50;;;;;;5071699;28;20207;-95
2022/03/23 10:41:30;;;;;;;26.07;18.50;;;24.40;41.50;;;;;;5056634;28;20231;-93
2022/03/23 10:43:58;;;;;;;30.60;19.33;;;24.50;41.00;;;;;;5072048;28;20207;-92
2022/03/23 10:46:27;;;;;;;28.70;18.03;;;24.70;41.20;;;;;;5070426;28;20198;-94
2022/03/23 10:48:59;;;;;;;28.57;19.23;;;24.80;41.10;;;;;;5071129;28;20306;-94
2022/03/23 10:51:27;;;;;;;32.17;19.50;;;24.90;39.50;;;;;;5070724;28;20210;-94
2022/03/23 10:53:56;;;;;;;30.73;19.67;;;25.10;39.10;;;;;;5071145;28;20199;-93
2022/03/23 10:56:31;;;;;;;27.27;18.07;;;25.20;39.10;;;;;;5068507;28;20290;-93
2022/03/23 10:59:21;;;;;;;25.87;17.47;;;25.30;38.60;;;;;;5067897;28;20199;-94
2022/03/23 11:02:00;;;;;;;26.87;18.40;;;25.40;38.50;;;;;;5061057;28;20235;-94
2022/03/23 11:04:31;;;;;;;31.73;18.43;;;25.40;37.50;;;;;;5071459;28;20426;-94
2022/03/23 11:07:03;;;;;;;30.63;19.13;;;25.50;38.50;;;;;;5067324;28;20219;-93
2022/03/23 11:18:07;;;;;;;31.17;20.07;;;25.90;38.60;;;;;;5071196;28;20757;-93
2022/03/23 11:20:45;;;;;;;28.50;19.07;;;26.00;37.20;;;;;;5069473;28;20953;-93
2022/03/23 11:23:24;;;;;;;32.47;20.20;;;26.10;36.10;;;;;;5069293;28;20746;-93
2022/03/23 11:25:53;;;;;;;27.57;18.93;;;26.20;36.00;;;;;;5070047;28;20207;-92
2022/03/23 11:29:01;;;;;;;26.63;18.70;;;26.20;36.20;;;;;;5070983;28;20203;-91
2022/03/23 11:31:32;;;;;;;24.97;17.17;;;26.30;36.20;;;;;;5071556;28;20295;-94
2022/03/23 11:33:59;;;;;;;29.13;19.13;;;26.40;36.70;;;;;;5071643;28;20242;-95
2022/03/23 11:36:29;;;;;;;33.05;19.63;;;26.50;36.40;;;;;;5067014;28;20234;-92
2022/03/23 11:38:59;;;;;;;28.50;18.47;;;26.60;36.90;;;;;;5063364;28;20199;-93
2022/03/23 11:41:26;;;;;;;28.00;19.50;;;26.70;37.30;;;;;;5068367;28;20203;-93
2022/03/23 11:43:53;;;;;;;27.23;17.77;;;26.70;35.60;;;;;;5071148;28;20336;-93
2022/03/23 11:46:27;;;;;;;27.80;18.13;;;26.80;36.10;;;;;;5070523;28;20208;-94
2022/03/23 11:49:15;;;;;;;25.70;17.50;;;26.90;35.30;;;;;;5071301;28;20290;-93
2022/03/23 11:52:06;;;;;;;26.97;17.60;;;27.00;34.20;;;;;;5069953;28;20679;-94
2022/03/23 11:58:05;;;;;;;21.83;15.43;;;27.20;35.20;;;;;;5070007;28;20264;-94
2022/03/23 12:00:40;;;;;;;25.63;16.63;;;27.20;33.20;;;;;;5069117;28;20203;-93
2022/03/23 12:03:07;;;;;;;27.92;17.50;;;27.30;34.10;;;;;;5069557;28;20302;-93
2022/03/23 12:05:37;;;;;;;27.67;16.70;;;27.40;34.10;;;;;;5069050;28;20195;-94
2022/03/23 12:08:05;;;;;;;26.47;17.83;;;27.40;33.40;;;;;;5070588;28;20249;-94
2022/03/23 12:10:44;;;;;;;25.67;16.17;;;27.40;32.50;;;;;;5068464;28;20223;-93
2022/03/23 12:13:17;;;;;;;26.37;16.23;;;27.40;32.90;;;;;;5071307;28;20268;-94
2022/03/23 12:15:57;;;;;;;25.27;16.70;;;27.40;33.30;;;;;;5070773;28;20223;-94
2022/03/23 12:18:59;;;;;;;26.63;16.87;;;27.40;32.90;;;;;;5070566;28;20242;-93
2022/03/23 12:21:40;;;;;;;24.10;16.60;;;27.40;32.80;;;;;;5070368;28;20238;-93
2022/03/23 12:24:15;;;;;;;32.00;17.73;;;27.40;32.40;;;;;;5068656;28;20203;-93
2022/03/23 12:26:50;;;;;;;24.07;16.40;;;27.40;31.30;;;;;;5070249;28;20253;-94
2022/03/23 12:29:25;;;;;;;22.43;14.77;;;27.40;31.90;;;;;;5069227;28;20223;-94
2022/03/23 12:32:05;;;;;;;23.67;15.17;;;27.30;32.60;;;;;;5071623;28;20196;-94
2022/03/23 12:34:33;;;;;;;21.70;15.23;;;27.30;32.70;;;;;;5068601;28;20585;-95
2022/03/23 12:37:10;;;;;;;19.40;11.95;;;27.30;31.50;;;;;;5065480;28;20206;-94
2022/03/23 12:39:39;;;;;;;20.25;12.23;;;27.40;30.50;;;;;;5063766;28;20287;-92
2022/03/23 12:42:21;;;;;;;19.37;12.93;;;27.40;31.90;;;;;;5068861;28;20242;-94
2022/03/23 12:44:50;;;;;;;18.50;12.68;;;27.40;30.30;;;;;;5071419;28;20206;-93
2022/03/23 12:47:21;;;;;;;17.23;12.13;;;27.40;30.90;;;;;;5071130;28;20307;-94
2022/03/23 12:58:18;;;;;;;14.75;11.68;;;27.60;31.30;;;;;;5072884;28;20241;-95
2022/03/23 13:00:51;;;;;;;20.33;12.98;;;27.70;31.60;;;;;;5074123;28;20564;-95
2022/03/23 13:03:51;;;;;;;22.67;12.88;;;27.70;30.70;;;;;;5071823;28;20245;-94
2022/03/23 13:06:22;;;;;;;18.90;12.20;;;27.80;29.60;;;;;;5074309;28;20239;-93
2022/03/23 13:08:52;;;;;;;15.80;11.98;;;27.90;30.10;;;;;;5073326;28;20224;-93
2022/03/23 13:11:22;;;;;;;16.88;12.30;;;27.90;29.80;;;;;;5072134;28;20269;-93
2022/03/23 13:13:51;;;;;;;16.70;11.15;;;27.90;30.60;;;;;;5073022;28;20188;-94
2022/03/23 13:16:22;;;;;;;17.38;10.88;;;28.00;30.60;;;;;;5073823;28;20204;-94
2022/03/23 13:18:53;;;;;;;14.85;10.35;;;28.10;30.00;;;;;;5073479;28;20207;-94
2022/03/23 13:21:23;;;;;;;15.85;9.80;;;28.20;30.70;;;;;;5073082;28;20683;-94
2022/03/23 13:23:53;;;;;;;14.23;10.05;;;28.30;30.30;;;;;;5074365;28;20227;-92
2022/03/23 13:26:24;;;;;;;17.00;9.88;;;28.40;30.30;;;;;;5071742;28;20219;-96
2022/03/23 13:28:56;;;;;;;18.83;10.80;;;28.60;30.30;;;;;;5073001;28;20191;-93
2022/03/23 13:31:29;;;;;;;17.27;9.25;;;28.70;29.60;;;;;;5073318;28;20984;-94
2022/03/23 13:33:57;;;;;;;13.85;9.90;;;28.80;29.70;;;;;;5073196;28;20211;-92